Terminal Aerodrome Forecast
Issued by NWS Sterling, VA

Current Version | Previous Version | Graphics & Text | Print | Product List | Glossary On
Versions: 1 2 3 4 5 6 7 8 9 10 11 12 13 14 15 16 17 18
000
FTUS41 KLWX 292300 RRA
TAFMRB
TAF
KMRB 292345Z 3000/3024 19010KT P6SM OVC050
     FM300400 25008KT P6SM SCT025 OVC050
     FM301000 31012KT P6SM BKN050
     FM301500 31018G27KT P6SM SCT025 BKN050
     FM301700 31020G29KT P6SM SCT025 BKN050
     FM301900 31021G31KT P6SM BKN050=

USA.gov is the U.S. government's official web portal to all federal, state and local government web resources and services.